sensor_id;sensor_type;location;lat;lon;timestamp;temperature;humidity
35635;DHT22;21757;43.610;1.440;2023-04-09T00:01:10;10.40;99.90
35635;DHT22;21757;43.610;1.440;2023-04-09T00:03:36;10.40;99.90
35635;DHT22;21757;43.610;1.440;2023-04-09T00:06:03;10.40;99.90
35635;DHT22;21757;43.610;1.440;2023-04-09T00:08:29;10.40;99.90
35635;DHT22;21757;43.610;1.440;2023-04-09T00:10:56;10.30;99.90
35635;DHT22;21757;43.610;1.440;2023-04-09T00:13:22;10.30;99.90
35635;DHT22;21757;43.610;1.440;2023-04-09T00:15:48;10.20;99.90
35635;DHT22;21757;43.610;1.440;2023-04-09T00:18:14;10.20;99.90
35635;DHT22;21757;43.610;1.440;2023-04-09T00:20:41;10.20;99.90
35635;DHT22;21757;43.610;1.440;2023-04-09T00:23:07;10.20;99.90
35635;DHT22;21757;43.610;1.440;2023-04-09T00:25:33;10.20;99.90
35635;DHT22;21757;43.610;1.440;2023-04-09T00:27:59;10.20;99.90
35635;DHT22;21757;43.610;1.440;2023-04-09T00:30:24;10.10;99.90
35635;DHT22;21757;43.610;1.440;2023-04-09T00:32:52;10.10;99.90
35635;DHT22;21757;43.610;1.440;2023-04-09T00:35:18;10.00;99.90
35635;DHT22;21757;43.610;1.440;2023-04-09T00:37:44;10.10;99.90
35635;DHT22;21757;43.610;1.440;2023-04-09T00:40:09;10.00;99.90
35635;DHT22;21757;43.610;1.440;2023-04-09T00:42:36;10.00;99.90
35635;DHT22;21757;43.610;1.440;2023-04-09T00:45:03;9.90;99.90
35635;DHT22;21757;43.610;1.440;2023-04-09T00:47:36;9.90;99.90
35635;DHT22;21757;43.610;1.440;2023-04-09T00:52:37;9.90;99.90
35635;DHT22;21757;43.610;1.440;2023-04-09T00:55:04;9.90;99.90
35635;DHT22;21757;43.610;1.440;2023-04-09T00:57:31;9.90;99.90
35635;DHT22;21757;43.610;1.440;2023-04-09T00:59:57;9.90;99.90
35635;DHT22;21757;43.610;1.440;2023-04-09T01:02:22;9.80;99.90
35635;DHT22;21757;43.610;1.440;2023-04-09T01:04:48;9.80;99.90
35635;DHT22;21757;43.610;1.440;2023-04-09T01:15:05;9.90;99.90
35635;DHT22;21757;43.610;1.440;2023-04-09T01:17:55;9.90;99.90
35635;DHT22;21757;43.610;1.440;2023-04-09T01:20:41;9.80;99.90
35635;DHT22;21757;43.610;1.440;2023-04-09T01:26:10;9.70;99.90
35635;DHT22;21757;43.610;1.440;2023-04-09T01:28:55;9.60;99.90
35635;DHT22;21757;43.610;1.440;2023-04-09T01:31:27;9.60;99.90
35635;DHT22;21757;43.610;1.440;2023-04-09T01:33:54;9.60;99.90
35635;DHT22;21757;43.610;1.440;2023-04-09T01:36:21;9.60;99.90
35635;DHT22;21757;43.610;1.440;2023-04-09T01:38:47;9.50;99.90
35635;DHT22;21757;43.610;1.440;2023-04-09T01:41:18;9.40;99.90
35635;DHT22;21757;43.610;1.440;2023-04-09T01:43:48;9.40;99.90
35635;DHT22;21757;43.610;1.440;2023-04-09T01:46:15;9.40;99.90
35635;DHT22;21757;43.610;1.440;2023-04-09T01:48:41;9.30;99.90
35635;DHT22;21757;43.610;1.440;2023-04-09T01:51:08;9.30;99.90
35635;DHT22;21757;43.610;1.440;2023-04-09T01:53:33;9.30;99.90
35635;DHT22;21757;43.610;1.440;2023-04-09T01:56:00;9.20;99.90
35635;DHT22;21757;43.610;1.440;2023-04-09T01:58:26;9.20;99.90
35635;DHT22;21757;43.610;1.440;2023-04-09T02:01:04;9.10;99.90
35635;DHT22;21757;43.610;1.440;2023-04-09T02:03:42;9.10;99.90
35635;DHT22;21757;43.610;1.440;2023-04-09T02:06:16;9.10;99.90
35635;DHT22;21757;43.610;1.440;2023-04-09T02:08:46;9.00;99.90
35635;DHT22;21757;43.610;1.440;2023-04-09T02:11:13;9.10;99.90
35635;DHT22;21757;43.610;1.440;2023-04-09T02:13:40;9.10;99.90
35635;DHT22;21757;43.610;1.440;2023-04-09T02:16:07;9.10;99.90
35635;DHT22;21757;43.610;1.440;2023-04-09T02:18:33;9.00;99.90
35635;DHT22;21757;43.610;1.440;2023-04-09T02:20:59;9.10;99.90
35635;DHT22;21757;43.610;1.440;2023-04-09T02:23:25;9.10;99.90
35635;DHT22;21757;43.610;1.440;2023-04-09T02:25:52;9.10;99.90
35635;DHT22;21757;43.610;1.440;2023-04-09T02:28:18;9.20;99.90
35635;DHT22;21757;43.610;1.440;2023-04-09T02:30:44;9.20;99.90
35635;DHT22;21757;43.610;1.440;2023-04-09T02:33:10;9.30;99.90
35635;DHT22;21757;43.610;1.440;2023-04-09T02:35:36;9.30;99.90
35635;DHT22;21757;43.610;1.440;2023-04-09T02:38:02;9.20;99.90
35635;DHT22;21757;43.610;1.440;2023-04-09T02:40:28;9.20;99.90
35635;DHT22;21757;43.610;1.440;2023-04-09T02:42:54;9.10;99.90
35635;DHT22;21757;43.610;1.440;2023-04-09T02:45:19;9.20;99.90
35635;DHT22;21757;43.610;1.440;2023-04-09T02:47:45;9.20;99.90
35635;DHT22;21757;43.610;1.440;2023-04-09T02:50:10;9.10;99.90
35635;DHT22;21757;43.610;1.440;2023-04-09T02:52:36;9.10;99.90
35635;DHT22;21757;43.610;1.440;2023-04-09T02:55:02;9.10;99.90
35635;DHT22;21757;43.610;1.440;2023-04-09T02:57:28;9.10;99.90
35635;DHT22;21757;43.610;1.440;2023-04-09T02:59:54;9.20;99.90
35635;DHT22;21757;43.610;1.440;2023-04-09T03:02:20;9.10;99.90
35635;DHT22;21757;43.610;1.440;2023-04-09T03:04:46;9.10;99.90
35635;DHT22;21757;43.610;1.440;2023-04-09T03:07:11;9.00;99.90
35635;DHT22;21757;43.610;1.440;2023-04-09T03:09:37;9.00;99.90
35635;DHT22;21757;43.610;1.440;2023-04-09T03:12:03;8.90;99.90
35635;DHT22;21757;43.610;1.440;2023-04-09T03:14:28;8.90;99.90
35635;DHT22;21757;43.610;1.440;2023-04-09T03:16:54;8.80;99.90
35635;DHT22;21757;43.610;1.440;2023-04-09T03:19:20;8.80;99.90
35635;DHT22;21757;43.610;1.440;2023-04-09T03:21:45;8.70;99.90
35635;DHT22;21757;43.610;1.440;2023-04-09T03:24:13;8.70;99.90
35635;DHT22;21757;43.610;1.440;2023-04-09T03:26:40;8.70;99.90
35635;DHT22;21757;43.610;1.440;2023-04-09T03:29:07;8.70;99.90
35635;DHT22;21757;43.610;1.440;2023-04-09T03:31:32;8.70;99.90
35635;DHT22;21757;43.610;1.440;2023-04-09T03:33:58;8.60;99.90
35635;DHT22;21757;43.610;1.440;2023-04-09T03:36:24;8.60;99.90
35635;DHT22;21757;43.610;1.440;2023-04-09T03:38:52;8.60;99.90
35635;DHT22;21757;43.610;1.440;2023-04-09T03:41:18;8.60;99.90
35635;DHT22;21757;43.610;1.440;2023-04-09T03:43:43;8.60;99.90
35635;DHT22;21757;43.610;1.440;2023-04-09T03:46:13;8.50;99.90
35635;DHT22;21757;43.610;1.440;2023-04-09T03:48:39;8.60;99.90
35635;DHT22;21757;43.610;1.440;2023-04-09T03:51:06;8.50;99.90
35635;DHT22;21757;43.610;1.440;2023-04-09T03:53:31;8.50;99.90
35635;DHT22;21757;43.610;1.440;2023-04-09T03:55:57;8.50;99.90
35635;DHT22;21757;43.610;1.440;2023-04-09T03:58:23;8.50;99.90
35635;DHT22;21757;43.610;1.440;2023-04-09T04:00:48;8.50;99.90
35635;DHT22;21757;43.610;1.440;2023-04-09T04:03:14;8.50;99.90
35635;DHT22;21757;43.610;1.440;2023-04-09T04:05:41;8.40;99.90
35635;DHT22;21757;43.610;1.440;2023-04-09T04:08:06;8.40;99.90
35635;DHT22;21757;43.610;1.440;2023-04-09T04:10:35;8.40;99.90
35635;DHT22;21757;43.610;1.440;2023-04-09T04:13:01;8.30;99.90
35635;DHT22;21757;43.610;1.440;2023-04-09T04:15:27;8.30;99.90
35635;DHT22;21757;43.610;1.440;2023-04-09T04:17:53;8.30;99.90
35635;DHT22;21757;43.610;1.440;2023-04-09T04:20:19;8.30;99.90
35635;DHT22;21757;43.610;1.440;2023-04-09T04:22:45;8.20;99.90
35635;DHT22;21757;43.610;1.440;2023-04-09T04:25:11;8.30;99.90
35635;DHT22;21757;43.610;1.440;2023-04-09T04:27:40;8.20;99.90
35635;DHT22;21757;43.610;1.440;2023-04-09T04:30:06;8.20;99.90
35635;DHT22;21757;43.610;1.440;2023-04-09T04:32:32;8.20;99.90
35635;DHT22;21757;43.610;1.440;2023-04-09T04:34:57;8.20;99.90
35635;DHT22;21757;43.610;1.440;2023-04-09T04:37:23;8.10;99.90
35635;DHT22;21757;43.610;1.440;2023-04-09T04:39:49;8.10;99.90
35635;DHT22;21757;43.610;1.440;2023-04-09T04:42:15;8.10;99.90
35635;DHT22;21757;43.610;1.440;2023-04-09T04:44:41;8.10;99.90
35635;DHT22;21757;43.610;1.440;2023-04-09T04:47:07;8.10;99.90
35635;DHT22;21757;43.610;1.440;2023-04-09T04:49:32;8.00;99.90
35635;DHT22;21757;43.610;1.440;2023-04-09T04:51:58;8.10;99.90
35635;DHT22;21757;43.610;1.440;2023-04-09T04:54:24;8.10;99.90
35635;DHT22;21757;43.610;1.440;2023-04-09T04:56:49;8.00;99.90
35635;DHT22;21757;43.610;1.440;2023-04-09T04:59:15;8.00;99.90
35635;DHT22;21757;43.610;1.440;2023-04-09T05:01:41;8.00;99.90
35635;DHT22;21757;43.610;1.440;2023-04-09T05:04:06;8.00;99.90
35635;DHT22;21757;43.610;1.440;2023-04-09T05:06:32;7.90;99.90
35635;DHT22;21757;43.610;1.440;2023-04-09T05:08:58;7.90;99.90
35635;DHT22;21757;43.610;1.440;2023-04-09T05:11:24;7.80;99.90
35635;DHT22;21757;43.610;1.440;2023-04-09T05:13:49;7.70;99.90
35635;DHT22;21757;43.610;1.440;2023-04-09T05:16:16;7.70;99.90
35635;DHT22;21757;43.610;1.440;2023-04-09T05:18:42;7.70;99.90
35635;DHT22;21757;43.610;1.440;2023-04-09T05:21:08;7.60;99.90
35635;DHT22;21757;43.610;1.440;2023-04-09T05:23:34;7.70;99.90
35635;DHT22;21757;43.610;1.440;2023-04-09T05:26:00;7.80;99.90
35635;DHT22;21757;43.610;1.440;2023-04-09T05:28:25;7.80;99.90
35635;DHT22;21757;43.610;1.440;2023-04-09T05:30:51;7.70;99.90
35635;DHT22;21757;43.610;1.440;2023-04-09T05:33:17;7.70;99.90
35635;DHT22;21757;43.610;1.440;2023-04-09T05:35:42;7.70;99.90
35635;DHT22;21757;43.610;1.440;2023-04-09T05:38:08;7.80;99.90
35635;DHT22;21757;43.610;1.440;2023-04-09T05:40:34;7.80;99.90
35635;DHT22;21757;43.610;1.440;2023-04-09T05:43:00;7.80;99.90
35635;DHT22;21757;43.610;1.440;2023-04-09T05:45:26;7.80;99.90
35635;DHT22;21757;43.610;1.440;2023-04-09T05:47:53;7.80;99.90
35635;DHT22;21757;43.610;1.440;2023-04-09T05:50:19;7.90;99.90
35635;DHT22;21757;43.610;1.440;2023-04-09T05:52:45;7.90;99.90
35635;DHT22;21757;43.610;1.440;2023-04-09T05:55:10;8.00;99.90
35635;DHT22;21757;43.610;1.440;2023-04-09T05:57:36;8.10;99.90
35635;DHT22;21757;43.610;1.440;2023-04-09T06:00:02;8.20;99.90
35635;DHT22;21757;43.610;1.440;2023-04-09T06:02:28;8.40;99.90
35635;DHT22;21757;43.610;1.440;2023-04-09T06:04:54;8.50;99.90
35635;DHT22;21757;43.610;1.440;2023-04-09T06:07:20;8.70;99.90
35635;DHT22;21757;43.610;1.440;2023-04-09T06:09:45;8.80;99.90
35635;DHT22;21757;43.610;1.440;2023-04-09T06:12:12;8.90;99.90
35635;DHT22;21757;43.610;1.440;2023-04-09T06:14:38;9.00;99.90
35635;DHT22;21757;43.610;1.440;2023-04-09T06:17:03;9.10;99.90
35635;DHT22;21757;43.610;1.440;2023-04-09T06:19:29;9.20;99.90
35635;DHT22;21757;43.610;1.440;2023-04-09T06:21:55;9.30;99.90
35635;DHT22;21757;43.610;1.440;2023-04-09T06:24:21;9.30;99.90
35635;DHT22;21757;43.610;1.440;2023-04-09T06:26:47;9.50;99.90
35635;DHT22;21757;43.610;1.440;2023-04-09T06:29:13;9.50;99.90
35635;DHT22;21757;43.610;1.440;2023-04-09T06:31:39;9.70;99.90
35635;DHT22;21757;43.610;1.440;2023-04-09T06:34:05;9.80;99.90
35635;DHT22;21757;43.610;1.440;2023-04-09T06:36:32;9.90;99.90
35635;DHT22;21757;43.610;1.440;2023-04-09T06:38:57;9.90;99.90
35635;DHT22;21757;43.610;1.440;2023-04-09T06:41:24;10.00;99.90
35635;DHT22;21757;43.610;1.440;2023-04-09T06:43:51;9.90;99.90
35635;DHT22;21757;43.610;1.440;2023-04-09T06:46:16;9.90;99.90
35635;DHT22;21757;43.610;1.440;2023-04-09T06:48:45;9.90;99.90
35635;DHT22;21757;43.610;1.440;2023-04-09T06:51:11;9.90;99.90
35635;DHT22;21757;43.610;1.440;2023-04-09T06:53:37;9.90;99.90
35635;DHT22;21757;43.610;1.440;2023-04-09T06:56:03;10.10;99.90
35635;DHT22;21757;43.610;1.440;2023-04-09T06:58:29;10.10;99.90
35635;DHT22;21757;43.610;1.440;2023-04-09T07:00:55;10.30;99.90
35635;DHT22;21757;43.610;1.440;2023-04-09T07:03:21;10.40;99.90
35635;DHT22;21757;43.610;1.440;2023-04-09T07:05:46;10.50;99.90
35635;DHT22;21757;43.610;1.440;2023-04-09T07:08:13;10.50;99.90
35635;DHT22;21757;43.610;1.440;2023-04-09T07:10:39;10.70;99.90
35635;DHT22;21757;43.610;1.440;2023-04-09T07:13:05;10.70;99.90
35635;DHT22;21757;43.610;1.440;2023-04-09T07:15:31;10.80;99.90
35635;DHT22;21757;43.610;1.440;2023-04-09T07:17:56;11.00;99.90
35635;DHT22;21757;43.610;1.440;2023-04-09T07:20:22;11.10;99.90
35635;DHT22;21757;43.610;1.440;2023-04-09T07:22:48;11.20;99.90
35635;DHT22;21757;43.610;1.440;2023-04-09T07:25:14;11.30;99.90
35635;DHT22;21757;43.610;1.440;2023-04-09T07:27:40;11.10;99.90
35635;DHT22;21757;43.610;1.440;2023-04-09T07:30:08;11.10;99.90
35635;DHT22;21757;43.610;1.440;2023-04-09T07:32:35;11.20;99.90
35635;DHT22;21757;43.610;1.440;2023-04-09T07:35:04;11.30;99.90
35635;DHT22;21757;43.610;1.440;2023-04-09T07:37:30;11.40;99.90
35635;DHT22;21757;43.610;1.440;2023-04-09T07:39:56;11.50;99.90
35635;DHT22;21757;43.610;1.440;2023-04-09T07:42:22;11.60;99.90
35635;DHT22;21757;43.610;1.440;2023-04-09T07:44:48;11.60;99.90
35635;DHT22;21757;43.610;1.440;2023-04-09T07:47:14;11.60;99.90
35635;DHT22;21757;43.610;1.440;2023-04-09T07:49:40;11.80;99.90
35635;DHT22;21757;43.610;1.440;2023-04-09T07:52:06;11.90;99.90
35635;DHT22;21757;43.610;1.440;2023-04-09T07:54:32;12.00;99.90
35635;DHT22;21757;43.610;1.440;2023-04-09T07:56:58;12.10;99.90
35635;DHT22;21757;43.610;1.440;2023-04-09T07:59:24;12.20;99.90
35635;DHT22;21757;43.610;1.440;2023-04-09T08:01:52;12.30;99.90
35635;DHT22;21757;43.610;1.440;2023-04-09T08:04:17;12.30;99.90
35635;DHT22;21757;43.610;1.440;2023-04-09T08:06:43;12.40;99.90
35635;DHT22;21757;43.610;1.440;2023-04-09T08:09:14;12.50;99.90
35635;DHT22;21757;43.610;1.440;2023-04-09T08:11:40;12.70;99.90
35635;DHT22;21757;43.610;1.440;2023-04-09T08:14:06;12.90;99.90
35635;DHT22;21757;43.610;1.440;2023-04-09T08:16:41;13.30;99.90
35635;DHT22;21757;43.610;1.440;2023-04-09T08:19:08;13.70;99.90
35635;DHT22;21757;43.610;1.440;2023-04-09T08:21:36;13.90;99.90
35635;DHT22;21757;43.610;1.440;2023-04-09T08:24:03;14.00;99.90
35635;DHT22;21757;43.610;1.440;2023-04-09T08:26:30;14.00;99.90
35635;DHT22;21757;43.610;1.440;2023-04-09T08:28:56;13.90;99.90
35635;DHT22;21757;43.610;1.440;2023-04-09T08:31:22;13.80;99.90
35635;DHT22;21757;43.610;1.440;2023-04-09T08:33:48;13.70;99.90
35635;DHT22;21757;43.610;1.440;2023-04-09T08:36:13;13.60;99.90
35635;DHT22;21757;43.610;1.440;2023-04-09T08:38:40;13.50;99.90
35635;DHT22;21757;43.610;1.440;2023-04-09T08:41:06;13.60;99.90
35635;DHT22;21757;43.610;1.440;2023-04-09T08:43:32;13.70;99.90
35635;DHT22;21757;43.610;1.440;2023-04-09T08:46:00;13.90;99.90
35635;DHT22;21757;43.610;1.440;2023-04-09T08:48:28;14.00;99.90
35635;DHT22;21757;43.610;1.440;2023-04-09T08:50:54;14.20;99.90
35635;DHT22;21757;43.610;1.440;2023-04-09T08:53:20;14.50;99.90
35635;DHT22;21757;43.610;1.440;2023-04-09T08:55:47;14.70;99.90
35635;DHT22;21757;43.610;1.440;2023-04-09T08:58:13;15.00;99.90
35635;DHT22;21757;43.610;1.440;2023-04-09T09:00:39;15.30;99.90
35635;DHT22;21757;43.610;1.440;2023-04-09T09:03:11;15.50;99.90
35635;DHT22;21757;43.610;1.440;2023-04-09T09:05:44;15.50;99.90
35635;DHT22;21757;43.610;1.440;2023-04-09T09:08:12;15.40;99.90
35635;DHT22;21757;43.610;1.440;2023-04-09T09:10:42;15.30;99.90
35635;DHT22;21757;43.610;1.440;2023-04-09T09:13:27;15.30;99.90
35635;DHT22;21757;43.610;1.440;2023-04-09T09:16:11;15.30;99.90
35635;DHT22;21757;43.610;1.440;2023-04-09T09:18:39;15.60;99.90
35635;DHT22;21757;43.610;1.440;2023-04-09T09:21:15;15.80;99.90
35635;DHT22;21757;43.610;1.440;2023-04-09T09:23:42;15.90;99.90
35635;DHT22;21757;43.610;1.440;2023-04-09T09:26:28;16.00;99.90
35635;DHT22;21757;43.610;1.440;2023-04-09T09:28:55;16.10;99.90
35635;DHT22;21757;43.610;1.440;2023-04-09T09:31:23;16.10;99.90
35635;DHT22;21757;43.610;1.440;2023-04-09T09:33:50;16.20;99.90
35635;DHT22;21757;43.610;1.440;2023-04-09T09:36:32;16.20;99.90
35635;DHT22;21757;43.610;1.440;2023-04-09T09:38:59;16.20;99.90
35635;DHT22;21757;43.610;1.440;2023-04-09T09:41:28;16.00;99.90
35635;DHT22;21757;43.610;1.440;2023-04-09T09:43:54;16.10;99.90
35635;DHT22;21757;43.610;1.440;2023-04-09T09:46:20;16.00;99.90
35635;DHT22;21757;43.610;1.440;2023-04-09T09:48:46;16.10;99.90
35635;DHT22;21757;43.610;1.440;2023-04-09T09:51:13;16.20;99.90
35635;DHT22;21757;43.610;1.440;2023-04-09T09:53:43;16.40;99.90
35635;DHT22;21757;43.610;1.440;2023-04-09T09:56:15;16.40;99.90
35635;DHT22;21757;43.610;1.440;2023-04-09T09:59:00;16.30;99.90
35635;DHT22;21757;43.610;1.440;2023-04-09T10:01:28;16.30;99.90
35635;DHT22;21757;43.610;1.440;2023-04-09T10:03:56;16.30;99.90
35635;DHT22;21757;43.610;1.440;2023-04-09T10:06:25;16.40;99.90
35635;DHT22;21757;43.610;1.440;2023-04-09T10:08:55;16.30;99.90
35635;DHT22;21757;43.610;1.440;2023-04-09T10:11:22;16.30;99.90
35635;DHT22;21757;43.610;1.440;2023-04-09T10:13:55;16.30;99.90
35635;DHT22;21757;43.610;1.440;2023-04-09T10:16:22;16.50;99.90
35635;DHT22;21757;43.610;1.440;2023-04-09T10:18:48;16.70;99.90
35635;DHT22;21757;43.610;1.440;2023-04-09T10:21:33;16.80;99.90
35635;DHT22;21757;43.610;1.440;2023-04-09T10:24:01;16.90;99.90
35635;DHT22;21757;43.610;1.440;2023-04-09T10:26:35;16.80;99.90
35635;DHT22;21757;43.610;1.440;2023-04-09T10:29:12;16.80;99.90
35635;DHT22;21757;43.610;1.440;2023-04-09T10:32:03;16.80;99.90
35635;DHT22;21757;43.610;1.440;2023-04-09T10:34:29;16.80;99.90
35635;DHT22;21757;43.610;1.440;2023-04-09T10:36:59;17.00;99.90
35635;DHT22;21757;43.610;1.440;2023-04-09T10:39:26;17.10;99.90
35635;DHT22;21757;43.610;1.440;2023-04-09T10:41:55;17.30;99.90
35635;DHT22;21757;43.610;1.440;2023-04-09T10:44:23;17.20;99.90
35635;DHT22;21757;43.610;1.440;2023-04-09T10:46:52;17.30;99.90
35635;DHT22;21757;43.610;1.440;2023-04-09T10:49:22;17.50;99.90
35635;DHT22;21757;43.610;1.440;2023-04-09T10:59:37;18.20;99.90
35635;DHT22;21757;43.610;1.440;2023-04-09T11:02:06;18.40;99.90
35635;DHT22;21757;43.610;1.440;2023-04-09T11:04:40;18.60;99.90
35635;DHT22;21757;43.610;1.440;2023-04-09T11:07:08;18.50;99.90
35635;DHT22;21757;43.610;1.440;2023-04-09T11:09:35;18.40;99.90
35635;DHT22;21757;43.610;1.440;2023-04-09T11:12:00;18.10;99.90
35635;DHT22;21757;43.610;1.440;2023-04-09T11:14:28;18.00;99.90
35635;DHT22;21757;43.610;1.440;2023-04-09T11:16:54;18.10;99.90
35635;DHT22;21757;43.610;1.440;2023-04-09T11:19:20;18.20;99.90
35635;DHT22;21757;43.610;1.440;2023-04-09T11:21:46;18.30;99.90
35635;DHT22;21757;43.610;1.440;2023-04-09T11:24:13;18.60;99.90
35635;DHT22;21757;43.610;1.440;2023-04-09T11:26:38;18.70;99.90
35635;DHT22;21757;43.610;1.440;2023-04-09T11:29:07;18.80;99.90
35635;DHT22;21757;43.610;1.440;2023-04-09T11:31:34;18.70;99.90
35635;DHT22;21757;43.610;1.440;2023-04-09T11:34:00;18.90;99.90
35635;DHT22;21757;43.610;1.440;2023-04-09T11:36:26;18.80;99.90
35635;DHT22;21757;43.610;1.440;2023-04-09T11:38:53;19.00;99.90
35635;DHT22;21757;43.610;1.440;2023-04-09T11:41:37;19.30;99.90
35635;DHT22;21757;43.610;1.440;2023-04-09T11:44:04;19.70;99.90
35635;DHT22;21757;43.610;1.440;2023-04-09T11:46:37;20.00;99.90
35635;DHT22;21757;43.610;1.440;2023-04-09T11:49:03;20.80;99.90
35635;DHT22;21757;43.610;1.440;2023-04-09T11:51:30;21.10;99.90
35635;DHT22;21757;43.610;1.440;2023-04-09T11:54:04;21.50;99.90
35635;DHT22;21757;43.610;1.440;2023-04-09T11:56:30;21.50;99.90
35635;DHT22;21757;43.610;1.440;2023-04-09T11:58:55;21.30;99.90
35635;DHT22;21757;43.610;1.440;2023-04-09T12:01:22;21.00;99.90
35635;DHT22;21757;43.610;1.440;2023-04-09T12:03:52;21.00;99.90
35635;DHT22;21757;43.610;1.440;2023-04-09T12:06:20;21.10;99.90
35635;DHT22;21757;43.610;1.440;2023-04-09T12:08:51;21.20;99.90
35635;DHT22;21757;43.610;1.440;2023-04-09T12:11:17;21.40;99.90
35635;DHT22;21757;43.610;1.440;2023-04-09T12:13:44;21.60;99.90
35635;DHT22;21757;43.610;1.440;2023-04-09T12:16:13;21.40;99.90
35635;DHT22;21757;43.610;1.440;2023-04-09T12:18:43;21.30;99.90
35635;DHT22;21757;43.610;1.440;2023-04-09T12:21:09;21.50;99.90
35635;DHT22;21757;43.610;1.440;2023-04-09T12:23:35;21.40;99.90
35635;DHT22;21757;43.610;1.440;2023-04-09T12:26:01;21.00;99.90
35635;DHT22;21757;43.610;1.440;2023-04-09T12:28:27;20.90;99.90
35635;DHT22;21757;43.610;1.440;2023-04-09T12:30:53;20.60;99.90
35635;DHT22;21757;43.610;1.440;2023-04-09T12:33:20;20.40;99.90
35635;DHT22;21757;43.610;1.440;2023-04-09T12:35:46;20.10;99.90
35635;DHT22;21757;43.610;1.440;2023-04-09T12:38:12;19.50;99.90
35635;DHT22;21757;43.610;1.440;2023-04-09T12:40:38;19.40;99.90
35635;DHT22;21757;43.610;1.440;2023-04-09T12:43:04;19.40;99.90
35635;DHT22;21757;43.610;1.440;2023-04-09T12:45:30;19.50;99.90
35635;DHT22;21757;43.610;1.440;2023-04-09T12:47:56;19.50;99.90
35635;DHT22;21757;43.610;1.440;2023-04-09T12:50:22;19.70;99.90
35635;DHT22;21757;43.610;1.440;2023-04-09T12:52:48;19.70;99.90
35635;DHT22;21757;43.610;1.440;2023-04-09T12:55:15;19.90;99.90
35635;DHT22;21757;43.610;1.440;2023-04-09T12:57:43;19.80;99.90
35635;DHT22;21757;43.610;1.440;2023-04-09T13:00:10;19.90;99.90
35635;DHT22;21757;43.610;1.440;2023-04-09T13:02:36;19.90;99.90
35635;DHT22;21757;43.610;1.440;2023-04-09T13:05:02;19.90;99.90
35635;DHT22;21757;43.610;1.440;2023-04-09T13:07:29;19.80;99.90
35635;DHT22;21757;43.610;1.440;2023-04-09T13:09:56;19.80;99.90
35635;DHT22;21757;43.610;1.440;2023-04-09T13:12:22;20.00;99.90
35635;DHT22;21757;43.610;1.440;2023-04-09T13:14:50;19.90;99.90
35635;DHT22;21757;43.610;1.440;2023-04-09T13:17:16;19.70;99.90
35635;DHT22;21757;43.610;1.440;2023-04-09T13:19:41;20.00;99.90
35635;DHT22;21757;43.610;1.440;2023-04-09T13:22:07;20.00;99.90
35635;DHT22;21757;43.610;1.440;2023-04-09T13:24:37;20.20;99.90
35635;DHT22;21757;43.610;1.440;2023-04-09T13:27:04;20.00;99.90
35635;DHT22;21757;43.610;1.440;2023-04-09T13:29:30;20.00;99.90
35635;DHT22;21757;43.610;1.440;2023-04-09T13:31:56;20.10;99.90
35635;DHT22;21757;43.610;1.440;2023-04-09T13:34:23;20.30;99.90
35635;DHT22;21757;43.610;1.440;2023-04-09T13:36:49;20.30;99.90
35635;DHT22;21757;43.610;1.440;2023-04-09T13:39:15;20.40;99.90
35635;DHT22;21757;43.610;1.440;2023-04-09T13:41:40;20.20;99.90
35635;DHT22;21757;43.610;1.440;2023-04-09T13:44:06;20.10;99.90
35635;DHT22;21757;43.610;1.440;2023-04-09T13:46:32;20.20;99.90
35635;DHT22;21757;43.610;1.440;2023-04-09T13:48:58;20.40;99.90
35635;DHT22;21757;43.610;1.440;2023-04-09T13:51:25;20.50;99.90
35635;DHT22;21757;43.610;1.440;2023-04-09T13:53:51;20.70;99.90
35635;DHT22;21757;43.610;1.440;2023-04-09T13:56:17;20.60;99.90
35635;DHT22;21757;43.610;1.440;2023-04-09T13:58:43;20.50;99.90
35635;DHT22;21757;43.610;1.440;2023-04-09T14:01:10;20.40;99.90
35635;DHT22;21757;43.610;1.440;2023-04-09T14:03:36;20.40;99.90
35635;DHT22;21757;43.610;1.440;2023-04-09T14:06:05;20.30;99.90
35635;DHT22;21757;43.610;1.440;2023-04-09T14:08:31;20.40;99.90
35635;DHT22;21757;43.610;1.440;2023-04-09T14:10:56;20.40;99.90
35635;DHT22;21757;43.610;1.440;2023-04-09T14:13:22;20.60;99.90
35635;DHT22;21757;43.610;1.440;2023-04-09T14:15:48;20.80;99.90
35635;DHT22;21757;43.610;1.440;2023-04-09T14:18:14;20.90;99.90
35635;DHT22;21757;43.610;1.440;2023-04-09T14:20:40;20.90;99.90
35635;DHT22;21757;43.610;1.440;2023-04-09T14:23:06;21.00;99.90
35635;DHT22;21757;43.610;1.440;2023-04-09T14:25:31;21.00;99.90
35635;DHT22;21757;43.610;1.440;2023-04-09T14:27:57;20.90;99.90
35635;DHT22;21757;43.610;1.440;2023-04-09T14:30:23;21.00;99.90
35635;DHT22;21757;43.610;1.440;2023-04-09T14:32:49;21.20;99.90
35635;DHT22;21757;43.610;1.440;2023-04-09T14:35:15;21.20;99.90
35635;DHT22;21757;43.610;1.440;2023-04-09T14:37:40;21.10;99.90
35635;DHT22;21757;43.610;1.440;2023-04-09T14:40:07;21.20;99.90
35635;DHT22;21757;43.610;1.440;2023-04-09T14:42:33;20.90;99.90
35635;DHT22;21757;43.610;1.440;2023-04-09T14:44:58;20.80;99.90
35635;DHT22;21757;43.610;1.440;2023-04-09T14:47:24;20.90;99.90
35635;DHT22;21757;43.610;1.440;2023-04-09T14:49:50;20.90;99.90
35635;DHT22;21757;43.610;1.440;2023-04-09T14:52:16;21.00;99.90
35635;DHT22;21757;43.610;1.440;2023-04-09T14:54:41;21.00;99.90
35635;DHT22;21757;43.610;1.440;2023-04-09T14:57:07;21.20;99.90
35635;DHT22;21757;43.610;1.440;2023-04-09T14:59:33;21.20;99.90
35635;DHT22;21757;43.610;1.440;2023-04-09T15:02:00;21.10;99.90
35635;DHT22;21757;43.610;1.440;2023-04-09T15:04:26;21.10;99.90
35635;DHT22;21757;43.610;1.440;2023-04-09T15:06:52;21.00;99.90
35635;DHT22;21757;43.610;1.440;2023-04-09T15:09:17;21.00;99.90
35635;DHT22;21757;43.610;1.440;2023-04-09T15:11:46;21.20;99.90
35635;DHT22;21757;43.610;1.440;2023-04-09T15:14:11;21.20;99.90
35635;DHT22;21757;43.610;1.440;2023-04-09T15:16:37;21.20;99.90
35635;DHT22;21757;43.610;1.440;2023-04-09T15:19:03;21.20;99.90
35635;DHT22;21757;43.610;1.440;2023-04-09T15:21:29;21.10;99.90
35635;DHT22;21757;43.610;1.440;2023-04-09T15:23:56;21.20;99.90
35635;DHT22;21757;43.610;1.440;2023-04-09T15:26:24;21.30;99.90
35635;DHT22;21757;43.610;1.440;2023-04-09T15:28:50;21.50;99.90
35635;DHT22;21757;43.610;1.440;2023-04-09T15:31:18;21.60;99.90
35635;DHT22;21757;43.610;1.440;2023-04-09T15:33:44;21.40;99.90
35635;DHT22;21757;43.610;1.440;2023-04-09T15:36:11;21.60;99.90
35635;DHT22;21757;43.610;1.440;2023-04-09T15:38:37;21.50;99.90
35635;DHT22;21757;43.610;1.440;2023-04-09T15:41:04;21.50;99.90
35635;DHT22;21757;43.610;1.440;2023-04-09T15:43:30;21.50;99.90
35635;DHT22;21757;43.610;1.440;2023-04-09T15:45:56;21.60;99.90
35635;DHT22;21757;43.610;1.440;2023-04-09T15:48:21;21.50;99.90
35635;DHT22;21757;43.610;1.440;2023-04-09T15:50:47;21.50;99.90
35635;DHT22;21757;43.610;1.440;2023-04-09T15:53:13;21.40;99.90
35635;DHT22;21757;43.610;1.440;2023-04-09T15:55:40;21.40;99.90
35635;DHT22;21757;43.610;1.440;2023-04-09T15:58:05;21.40;99.90